sensor_id;sensor_type;location;lat;lon;timestamp;pressure;altitude;pressure_sealevel;temperature;humidity
54369;BME280;40266;52.434;17.056;2022-12-11T00:00:18;99971.71;;;-1.28;93.38
54369;BME280;40266;52.434;17.056;2022-12-11T00:03:21;99973.79;;;-1.27;93.31
54369;BME280;40266;52.434;17.056;2022-12-11T00:06:09;99972.41;;;-1.28;92.87
54369;BME280;40266;52.434;17.056;2022-12-11T00:08:53;99972.23;;;-1.27;93.06
54369;BME280;40266;52.434;17.056;2022-12-11T00:11:37;99971.42;;;-1.25;93.07
54369;BME280;40266;52.434;17.056;2022-12-11T00:14:19;99972.41;;;-1.28;92.79
54369;BME280;40266;52.434;17.056;2022-12-11T00:17:02;99969.63;;;-1.30;92.81
54369;BME280;40266;52.434;17.056;2022-12-11T00:19:45;99960.02;;;-1.30;92.87
54369;BME280;40266;52.434;17.056;2022-12-11T00:22:30;99958.30;;;-1.31;92.68
54369;BME280;40266;52.434;17.056;2022-12-11T00:25:13;99958.65;;;-1.31;92.69
54369;BME280;40266;52.434;17.056;2022-12-11T00:27:56;99953.86;;;-1.31;92.71
54369;BME280;40266;52.434;17.056;2022-12-11T00:30:40;99948.52;;;-1.32;92.50
54369;BME280;40266;52.434;17.056;2022-12-11T00:33:25;99945.45;;;-1.31;92.84
54369;BME280;40266;52.434;17.056;2022-12-11T00:36:20;99945.84;;;-1.29;92.63
54369;BME280;40266;52.434;17.056;2022-12-11T00:39:04;99940.66;;;-1.30;92.54
54369;BME280;40266;52.434;17.056;2022-12-11T00:41:47;99945.29;;;-1.31;92.57
54369;BME280;40266;52.434;17.056;2022-12-11T00:44:31;99952.34;;;-1.29;92.48
54369;BME280;40266;52.434;17.056;2022-12-11T00:47:14;99952.66;;;-1.29;92.42
54369;BME280;40266;52.434;17.056;2022-12-11T00:49:56;99950.83;;;-1.27;92.61
54369;BME280;40266;52.434;17.056;2022-12-11T00:52:39;99951.38;;;-1.26;92.53
54369;BME280;40266;52.434;17.056;2022-12-11T00:55:22;99952.36;;;-1.28;92.33
54369;BME280;40266;52.434;17.056;2022-12-11T00:58:06;99948.60;;;-1.27;92.48
54369;BME280;40266;52.434;17.056;2022-12-11T01:00:49;99942.77;;;-1.29;92.47
54369;BME280;40266;52.434;17.056;2022-12-11T01:03:32;99941.73;;;-1.28;92.45
54369;BME280;40266;52.434;17.056;2022-12-11T01:06:18;99943.53;;;-1.33;91.90
54369;BME280;40266;52.434;17.056;2022-12-11T01:09:01;99947.27;;;-1.34;92.14
54369;BME280;40266;52.434;17.056;2022-12-11T01:12:04;99947.46;;;-1.33;92.14
54369;BME280;40266;52.434;17.056;2022-12-11T01:14:47;99946.60;;;-1.34;92.12
54369;BME280;40266;52.434;17.056;2022-12-11T01:17:30;99947.44;;;-1.34;92.03
54369;BME280;40266;52.434;17.056;2022-12-11T01:20:13;99947.43;;;-1.35;91.95
54369;BME280;40266;52.434;17.056;2022-12-11T01:22:58;99950.19;;;-1.34;91.97
54369;BME280;40266;52.434;17.056;2022-12-11T01:25:42;99945.90;;;-1.34;91.94
54369;BME280;40266;52.434;17.056;2022-12-11T01:28:25;99945.07;;;-1.33;91.96
54369;BME280;40266;52.434;17.056;2022-12-11T01:31:09;99944.58;;;-1.32;91.90
54369;BME280;40266;52.434;17.056;2022-12-11T01:33:55;99947.63;;;-1.33;91.83
54369;BME280;40266;52.434;17.056;2022-12-11T01:36:38;99946.10;;;-1.33;91.79
54369;BME280;40266;52.434;17.056;2022-12-11T01:39:21;99941.84;;;-1.32;91.97
54369;BME280;40266;52.434;17.056;2022-12-11T01:42:04;99942.39;;;-1.29;92.06
54369;BME280;40266;52.434;17.056;2022-12-11T01:47:34;99940.77;;;-1.25;92.08
54369;BME280;40266;52.434;17.056;2022-12-11T01:50:17;99938.70;;;-1.25;91.84
54369;BME280;40266;52.434;17.056;2022-12-11T01:53:02;99942.94;;;-1.28;91.56
54369;BME280;40266;52.434;17.056;2022-12-11T01:55:49;99944.42;;;-1.31;91.38
54369;BME280;40266;52.434;17.056;2022-12-11T01:58:38;99944.58;;;-1.32;91.33
54369;BME280;40266;52.434;17.056;2022-12-11T02:01:37;99946.45;;;-1.32;91.28
54369;BME280;40266;52.434;17.056;2022-12-11T02:04:21;99948.11;;;-1.36;91.05
54369;BME280;40266;52.434;17.056;2022-12-11T02:07:05;99949.79;;;-1.37;91.23
54369;BME280;40266;52.434;17.056;2022-12-11T02:09:48;99945.48;;;-1.38;91.07
54369;BME280;40266;52.434;17.056;2022-12-11T02:13:06;99947.51;;;-1.40;91.09
54369;BME280;40266;52.434;17.056;2022-12-11T02:16:09;99939.60;;;-1.41;90.84
54369;BME280;40266;52.434;17.056;2022-12-11T02:19:13;99936.16;;;-1.41;90.87
54369;BME280;40266;52.434;17.056;2022-12-11T02:21:59;99935.48;;;-1.42;90.83
54369;BME280;40266;52.434;17.056;2022-12-11T02:25:03;99929.93;;;-1.45;90.57
54369;BME280;40266;52.434;17.056;2022-12-11T02:27:52;99929.69;;;-1.49;90.33
54369;BME280;40266;52.434;17.056;2022-12-11T02:30:45;99922.27;;;-1.52;90.27
54369;BME280;40266;52.434;17.056;2022-12-11T02:36:46;99925.14;;;-1.54;90.07
54369;BME280;40266;52.434;17.056;2022-12-11T02:39:31;99923.91;;;-1.55;90.15
54369;BME280;40266;52.434;17.056;2022-12-11T02:42:18;99917.57;;;-1.57;90.12
54369;BME280;40266;52.434;17.056;2022-12-11T02:45:03;99915.48;;;-1.58;90.10
54369;BME280;40266;52.434;17.056;2022-12-11T02:47:50;99913.27;;;-1.57;90.24
54369;BME280;40266;52.434;17.056;2022-12-11T02:50:37;99914.13;;;-1.57;90.32
54369;BME280;40266;52.434;17.056;2022-12-11T02:53:28;99913.94;;;-1.57;90.20
54369;BME280;40266;52.434;17.056;2022-12-11T02:56:20;99914.79;;;-1.59;90.17
54369;BME280;40266;52.434;17.056;2022-12-11T02:59:13;99917.83;;;-1.60;89.89
54369;BME280;40266;52.434;17.056;2022-12-11T03:01:57;99917.83;;;-1.60;90.13
54369;BME280;40266;52.434;17.056;2022-12-11T03:04:41;99914.45;;;-1.58;90.09
54369;BME280;40266;52.434;17.056;2022-12-11T03:07:26;99915.67;;;-1.57;89.98
54369;BME280;40266;52.434;17.056;2022-12-11T03:10:14;99919.90;;;-1.59;89.67
54369;BME280;40266;52.434;17.056;2022-12-11T03:12:59;99922.56;;;-1.63;89.70
54369;BME280;40266;52.434;17.056;2022-12-11T03:15:57;99923.70;;;-1.66;89.53
54369;BME280;40266;52.434;17.056;2022-12-11T03:25:03;99929.42;;;-1.63;89.85
54369;BME280;40266;52.434;17.056;2022-12-11T03:27:56;99929.77;;;-1.63;89.50
54369;BME280;40266;52.434;17.056;2022-12-11T03:30:42;99933.17;;;-1.64;89.38
54369;BME280;40266;52.434;17.056;2022-12-11T03:33:36;99932.69;;;-1.62;89.56
54369;BME280;40266;52.434;17.056;2022-12-11T03:36:24;99929.64;;;-1.61;89.52
54369;BME280;40266;52.434;17.056;2022-12-11T03:39:15;99931.54;;;-1.60;89.51
54369;BME280;40266;52.434;17.056;2022-12-11T03:42:02;99936.35;;;-1.59;89.40
54369;BME280;40266;52.434;17.056;2022-12-11T03:44:49;99934.45;;;-1.59;89.28
54369;BME280;40266;52.434;17.056;2022-12-11T03:47:33;99933.80;;;-1.58;89.32
54369;BME280;40266;52.434;17.056;2022-12-11T03:50:19;99935.19;;;-1.57;89.11
54369;BME280;40266;52.434;17.056;2022-12-11T03:53:05;99933.75;;;-1.60;88.89
54369;BME280;40266;52.434;17.056;2022-12-11T03:55:50;99931.09;;;-1.65;88.73
54369;BME280;40266;52.434;17.056;2022-12-11T03:58:34;99927.07;;;-1.69;88.50
54369;BME280;40266;52.434;17.056;2022-12-11T04:01:17;99929.11;;;-1.70;88.50
54369;BME280;40266;52.434;17.056;2022-12-11T04:04:00;99926.33;;;-1.72;88.31
54369;BME280;40266;52.434;17.056;2022-12-11T04:06:45;99923.55;;;-1.74;88.27
54369;BME280;40266;52.434;17.056;2022-12-11T04:09:28;99920.42;;;-1.76;88.10
54369;BME280;40266;52.434;17.056;2022-12-11T04:12:11;99920.73;;;-1.78;88.08
54369;BME280;40266;52.434;17.056;2022-12-11T04:14:53;99923.11;;;-1.78;88.05
54369;BME280;40266;52.434;17.056;2022-12-11T04:17:45;99918.83;;;-1.79;88.03
54369;BME280;40266;52.434;17.056;2022-12-11T04:20:46;99918.09;;;-1.82;88.14
54369;BME280;40266;52.434;17.056;2022-12-11T04:23:48;99921.14;;;-1.83;88.03
54369;BME280;40266;52.434;17.056;2022-12-11T04:26:49;99916.41;;;-1.89;87.89
54369;BME280;40266;52.434;17.056;2022-12-11T04:29:32;99913.80;;;-1.90;87.83
54369;BME280;40266;52.434;17.056;2022-12-11T04:32:15;99909.98;;;-1.94;87.88
54369;BME280;40266;52.434;17.056;2022-12-11T04:34:58;99906.90;;;-1.93;88.04
54369;BME280;40266;52.434;17.056;2022-12-11T04:37:41;99906.20;;;-1.94;87.97
54369;BME280;40266;52.434;17.056;2022-12-11T04:40:24;99896.25;;;-1.95;88.00
54369;BME280;40266;52.434;17.056;2022-12-11T04:43:06;99888.59;;;-1.93;88.33
54369;BME280;40266;52.434;17.056;2022-12-11T04:45:49;99884.31;;;-1.94;88.10
54369;BME280;40266;52.434;17.056;2022-12-11T04:48:32;99886.75;;;-1.92;88.18
54369;BME280;40266;52.434;17.056;2022-12-11T04:51:17;99886.73;;;-1.92;88.27
54369;BME280;40266;52.434;17.056;2022-12-11T04:54:01;99885.38;;;-1.91;88.29
54369;BME280;40266;52.434;17.056;2022-12-11T04:56:43;99884.38;;;-1.90;88.26
54369;BME280;40266;52.434;17.056;2022-12-11T04:59:26;99882.48;;;-1.91;88.01
54369;BME280;40266;52.434;17.056;2022-12-11T05:02:09;99886.07;;;-1.91;87.87
54369;BME280;40266;52.434;17.056;2022-12-11T05:04:52;99879.66;;;-1.95;87.43
54369;BME280;40266;52.434;17.056;2022-12-11T05:07:35;99870.32;;;-1.99;87.35
54369;BME280;40266;52.434;17.056;2022-12-11T05:10:19;99866.56;;;-2.00;87.29
54369;BME280;40266;52.434;17.056;2022-12-11T05:13:02;99869.44;;;-2.01;87.36
54369;BME280;40266;52.434;17.056;2022-12-11T05:15:45;99864.28;;;-2.02;87.31
54369;BME280;40266;52.434;17.056;2022-12-11T05:18:28;99862.52;;;-2.04;87.23
54369;BME280;40266;52.434;17.056;2022-12-11T05:21:12;99864.05;;;-2.05;87.30
54369;BME280;40266;52.434;17.056;2022-12-11T05:23:56;99862.34;;;-2.05;87.30
54369;BME280;40266;52.434;17.056;2022-12-11T05:26:38;99852.59;;;-2.04;87.28
54369;BME280;40266;52.434;17.056;2022-12-11T05:29:21;99851.21;;;-2.06;87.13
54369;BME280;40266;52.434;17.056;2022-12-11T05:32:04;99846.94;;;-2.05;87.27
54369;BME280;40266;52.434;17.056;2022-12-11T05:34:49;99841.48;;;-2.04;87.24
54369;BME280;40266;52.434;17.056;2022-12-11T05:37:32;99832.09;;;-2.03;87.29
54369;BME280;40266;52.434;17.056;2022-12-11T05:40:16;99834.00;;;-2.02;87.45
54369;BME280;40266;52.434;17.056;2022-12-11T05:42:59;99832.34;;;-1.99;87.54
54369;BME280;40266;52.434;17.056;2022-12-11T05:45:42;99840.38;;;-1.99;87.24
54369;BME280;40266;52.434;17.056;2022-12-11T05:48:24;99843.61;;;-2.01;87.20
54369;BME280;40266;52.434;17.056;2022-12-11T05:51:08;99850.65;;;-1.99;87.26
54369;BME280;40266;52.434;17.056;2022-12-11T05:53:52;99848.81;;;-1.97;87.44
54369;BME280;40266;52.434;17.056;2022-12-11T05:56:36;99845.94;;;-1.95;87.48
54369;BME280;40266;52.434;17.056;2022-12-11T05:59:19;99846.32;;;-1.93;87.70
54369;BME280;40266;52.434;17.056;2022-12-11T06:02:02;99850.98;;;-1.91;87.56
54369;BME280;40266;52.434;17.056;2022-12-11T06:04:45;99846.55;;;-1.90;87.54
54369;BME280;40266;52.434;17.056;2022-12-11T06:07:28;99853.09;;;-1.88;87.54
54369;BME280;40266;52.434;17.056;2022-12-11T06:10:11;99856.85;;;-1.88;87.30
54369;BME280;40266;52.434;17.056;2022-12-11T06:12:55;99848.63;;;-1.88;87.34
54369;BME280;40266;52.434;17.056;2022-12-11T06:15:37;99846.45;;;-1.86;87.54
54369;BME280;40266;52.434;17.056;2022-12-11T06:18:20;99849.02;;;-1.86;87.61
54369;BME280;40266;52.434;17.056;2022-12-11T06:23:56;99847.02;;;-1.83;87.81
54369;BME280;40266;52.434;17.056;2022-12-11T06:26:39;99843.31;;;-1.81;87.82
54369;BME280;40266;52.434;17.056;2022-12-11T06:29:22;99843.85;;;-1.80;87.82
54369;BME280;40266;52.434;17.056;2022-12-11T06:32:05;99841.44;;;-1.80;87.65
54369;BME280;40266;52.434;17.056;2022-12-11T06:34:48;99841.80;;;-1.79;87.71
54369;BME280;40266;52.434;17.056;2022-12-11T06:37:31;99842.79;;;-1.81;87.48
54369;BME280;40266;52.434;17.056;2022-12-11T06:40:14;99848.56;;;-1.83;87.36
54369;BME280;40266;52.434;17.056;2022-12-11T06:42:57;99845.63;;;-1.84;87.33
54369;BME280;40266;52.434;17.056;2022-12-11T06:45:40;99842.39;;;-1.84;87.17
54369;BME280;40266;52.434;17.056;2022-12-11T06:48:23;99838.38;;;-1.87;87.07
54369;BME280;40266;52.434;17.056;2022-12-11T06:51:06;99832.64;;;-1.92;86.88
54369;BME280;40266;52.434;17.056;2022-12-11T06:53:52;99833.09;;;-1.96;86.58
54369;BME280;40266;52.434;17.056;2022-12-11T06:56:35;99836.15;;;-1.97;86.61
54369;BME280;40266;52.434;17.056;2022-12-11T06:59:18;99841.42;;;-1.99;86.64
54369;BME280;40266;52.434;17.056;2022-12-11T07:02:02;99841.39;;;-2.00;86.67
54369;BME280;40266;52.434;17.056;2022-12-11T07:04:45;99840.55;;;-2.00;86.70
54369;BME280;40266;52.434;17.056;2022-12-11T07:07:36;99842.92;;;-2.00;86.76
54369;BME280;40266;52.434;17.056;2022-12-11T07:10:20;99846.80;;;-2.03;86.75
54369;BME280;40266;52.434;17.056;2022-12-11T07:13:03;99847.09;;;-2.06;86.83
54369;BME280;40266;52.434;17.056;2022-12-11T07:15:45;99849.08;;;-2.09;86.89
54369;BME280;40266;52.434;17.056;2022-12-11T07:18:30;99845.41;;;-2.13;87.09
54369;BME280;40266;52.434;17.056;2022-12-11T07:21:16;99850.83;;;-2.16;86.91
54369;BME280;40266;52.434;17.056;2022-12-11T07:24:00;99850.63;;;-2.17;87.13
54369;BME280;40266;52.434;17.056;2022-12-11T07:26:43;99849.73;;;-2.18;87.15
54369;BME280;40266;52.434;17.056;2022-12-11T07:29:26;99850.95;;;-2.19;87.14
54369;BME280;40266;52.434;17.056;2022-12-11T07:32:09;99860.45;;;-2.22;87.11
54369;BME280;40266;52.434;17.056;2022-12-11T07:34:52;99866.27;;;-2.22;87.15
54369;BME280;40266;52.434;17.056;2022-12-11T07:37:39;99871.55;;;-2.22;87.21
54369;BME280;40266;52.434;17.056;2022-12-11T07:40:22;99871.26;;;-2.20;87.30
54369;BME280;40266;52.434;17.056;2022-12-11T07:43:05;99869.61;;;-2.18;87.25
54369;BME280;40266;52.434;17.056;2022-12-11T07:45:48;99871.52;;;-2.16;87.16
54369;BME280;40266;52.434;17.056;2022-12-11T07:48:31;99867.40;;;-2.16;87.02
54369;BME280;40266;52.434;17.056;2022-12-11T07:51:25;99867.00;;;-2.20;86.62
54369;BME280;40266;52.434;17.056;2022-12-11T07:54:12;99866.88;;;-2.25;86.32
54369;BME280;40266;52.434;17.056;2022-12-11T07:56:58;99865.58;;;-2.30;86.29
54369;BME280;40266;52.434;17.056;2022-12-11T07:59:41;99868.52;;;-2.36;86.07
54369;BME280;40266;52.434;17.056;2022-12-11T08:02:23;99866.61;;;-2.37;86.31
54369;BME280;40266;52.434;17.056;2022-12-11T08:05:07;99865.26;;;-2.37;86.37
54369;BME280;40266;52.434;17.056;2022-12-11T08:07:51;99866.78;;;-2.38;86.30
54369;BME280;40266;52.434;17.056;2022-12-11T08:10:34;99874.48;;;-2.38;86.29
54369;BME280;40266;52.434;17.056;2022-12-11T08:13:16;99879.79;;;-2.37;86.25
54369;BME280;40266;52.434;17.056;2022-12-11T08:16:03;99873.59;;;-2.39;85.90
54369;BME280;40266;52.434;17.056;2022-12-11T08:18:47;99863.92;;;-2.44;85.95
54369;BME280;40266;52.434;17.056;2022-12-11T08:21:30;99860.52;;;-2.43;86.19
54369;BME280;40266;52.434;17.056;2022-12-11T08:24:13;99857.64;;;-2.41;86.11
54369;BME280;40266;52.434;17.056;2022-12-11T08:27:00;99861.38;;;-2.42;86.01
54369;BME280;40266;52.434;17.056;2022-12-11T08:29:43;99865.67;;;-2.42;86.00
54369;BME280;40266;52.434;17.056;2022-12-11T08:32:28;99859.67;;;-2.42;85.82
54369;BME280;40266;52.434;17.056;2022-12-11T08:35:10;99848.56;;;-2.42;85.88
54369;BME280;40266;52.434;17.056;2022-12-11T08:37:54;99839.34;;;-2.41;85.72
54369;BME280;40266;52.434;17.056;2022-12-11T08:40:37;99834.86;;;-2.43;85.68
54369;BME280;40266;52.434;17.056;2022-12-11T08:43:19;99831.25;;;-2.43;85.67
54369;BME280;40266;52.434;17.056;2022-12-11T08:46:03;99825.14;;;-2.50;85.20
54369;BME280;40266;52.434;17.056;2022-12-11T08:48:46;99830.54;;;-2.52;85.35
54369;BME280;40266;52.434;17.056;2022-12-11T08:51:30;99836.46;;;-2.56;85.26
54369;BME280;40266;52.434;17.056;2022-12-11T08:54:13;99839.17;;;-2.57;85.26
54369;BME280;40266;52.434;17.056;2022-12-11T08:56:57;99841.21;;;-2.58;85.45
54369;BME280;40266;52.434;17.056;2022-12-11T08:59:40;99844.43;;;-2.59;85.31
54369;BME280;40266;52.434;17.056;2022-12-11T09:02:23;99845.60;;;-2.60;85.35
54369;BME280;40266;52.434;17.056;2022-12-11T09:05:07;99843.39;;;-2.60;85.55
54369;BME280;40266;52.434;17.056;2022-12-11T09:07:51;99847.31;;;-2.60;85.46
54369;BME280;40266;52.434;17.056;2022-12-11T09:10:34;99848.45;;;-2.63;85.39
54369;BME280;40266;52.434;17.056;2022-12-11T09:13:17;99847.38;;;-2.65;85.59
54369;BME280;40266;52.434;17.056;2022-12-11T09:16:11;99845.73;;;-2.62;85.66
54369;BME280;40266;52.434;17.056;2022-12-11T09:18:56;99847.20;;;-2.65;85.31
54369;BME280;40266;52.434;17.056;2022-12-11T09:21:41;99848.00;;;-2.67;85.46
54369;BME280;40266;52.434;17.056;2022-12-11T09:24:24;99842.59;;;-2.65;85.44
54369;BME280;40266;52.434;17.056;2022-12-11T09:27:07;99831.89;;;-2.62;85.49
54369;BME280;40266;52.434;17.056;2022-12-11T09:29:51;99828.09;;;-2.64;85.32
54369;BME280;40266;52.434;17.056;2022-12-11T09:32:34;99828.77;;;-2.63;85.37
54369;BME280;40266;52.434;17.056;2022-12-11T09:35:17;99825.52;;;-2.63;85.08
54369;BME280;40266;52.434;17.056;2022-12-11T09:38:01;99822.44;;;-2.64;85.10
54369;BME280;40266;52.434;17.056;2022-12-11T09:40:45;99819.55;;;-2.63;85.11
54369;BME280;40266;52.434;17.056;2022-12-11T09:43:41;99815.98;;;-2.62;85.05
54369;BME280;40266;52.434;17.056;2022-12-11T09:46:28;99804.11;;;-2.66;84.85
54369;BME280;40266;52.434;17.056;2022-12-11T09:49:38;99809.05;;;-2.59;85.14
54369;BME280;40266;52.434;17.056;2022-12-11T09:52:31;99807.27;;;-2.54;85.21
54369;BME280;40266;52.434;17.056;2022-12-11T09:55:19;99807.69;;;-2.50;85.22
54369;BME280;40266;52.434;17.056;2022-12-11T09:58:26;99803.11;;;-2.48;85.16
54369;BME280;40266;52.434;17.056;2022-12-11T10:07:50;99795.42;;;-2.32;85.71
54369;BME280;40266;52.434;17.056;2022-12-11T10:10:56;99791.50;;;-2.31;85.39
54369;BME280;40266;52.434;17.056;2022-12-11T10:17:05;99777.52;;;-2.29;85.32
54369;BME280;40266;52.434;17.056;2022-12-11T10:19:53;99770.09;;;-2.25;85.46
54369;BME280;40266;52.434;17.056;2022-12-11T10:22:37;99769.83;;;-2.20;85.36
54369;BME280;40266;52.434;17.056;2022-12-11T10:25:25;99773.84;;;-2.16;85.51
54369;BME280;40266;52.434;17.056;2022-12-11T10:28:17;99767.16;;;-2.16;85.27
54369;BME280;40266;52.434;17.056;2022-12-11T10:31:16;99759.77;;;-2.17;85.14
54369;BME280;40266;52.434;17.056;2022-12-11T10:34:04;99756.78;;;-2.13;85.45
54369;BME280;40266;52.434;17.056;2022-12-11T10:36:50;99753.62;;;-2.08;85.51
54369;BME280;40266;52.434;17.056;2022-12-11T10:39:40;99749.18;;;-2.08;85.30
54369;BME280;40266;52.434;17.056;2022-12-11T10:42:24;99747.63;;;-2.08;85.24
54369;BME280;40266;52.434;17.056;2022-12-11T10:45:14;99742.18;;;-2.07;85.25
54369;BME280;40266;52.434;17.056;2022-12-11T10:48:03;99740.66;;;-2.07;85.17
54369;BME280;40266;52.434;17.056;2022-12-11T10:50:56;99735.31;;;-2.08;85.04
54369;BME280;40266;52.434;17.056;2022-12-11T10:53:40;99735.44;;;-2.11;84.88
54369;BME280;40266;52.434;17.056;2022-12-11T10:56:27;99734.23;;;-2.12;84.94
54369;BME280;40266;52.434;17.056;2022-12-11T11:02:20;99725.08;;;-2.07;84.85
54369;BME280;40266;52.434;17.056;2022-12-11T11:05:35;99716.86;;;-2.07;85.10
54369;BME280;40266;52.434;17.056;2022-12-11T11:08:20;99716.52;;;-2.06;85.25
54369;BME280;40266;52.434;17.056;2022-12-11T11:16:56;99695.85;;;-1.95;85.15
54369;BME280;40266;52.434;17.056;2022-12-11T11:19:45;99692.46;;;-1.94;85.06
54369;BME280;40266;52.434;17.056;2022-12-11T11:22:30;99688.55;;;-1.92;85.01
54369;BME280;40266;52.434;17.056;2022-12-11T11:25:23;99689.14;;;-1.88;85.00
54369;BME280;40266;52.434;17.056;2022-12-11T11:28:18;99686.12;;;-1.84;84.98
54369;BME280;40266;52.434;17.056;2022-12-11T11:31:06;99691.85;;;-1.80;84.87
54369;BME280;40266;52.434;17.056;2022-12-11T11:33:59;99691.31;;;-1.81;84.54
54369;BME280;40266;52.434;17.056;2022-12-11T11:36:54;99684.77;;;-1.83;84.56
54369;BME280;40266;52.434;17.056;2022-12-11T11:39:41;99688.58;;;-1.81;84.59
54369;BME280;40266;52.434;17.056;2022-12-11T11:42:45;99686.77;;;-1.76;84.78
54369;BME280;40266;52.434;17.056;2022-12-11T11:45:56;99687.02;;;-1.72;84.64
54369;BME280;40266;52.434;17.056;2022-12-11T11:57:14;99676.70;;;-1.64;84.21
54369;BME280;40266;52.434;17.056;2022-12-11T12:00:17;99681.70;;;-1.61;84.30
54369;BME280;40266;52.434;17.056;2022-12-11T12:03:12;99675.13;;;-1.55;84.48
54369;BME280;40266;52.434;17.056;2022-12-11T12:06:09;99669.38;;;-1.50;84.47
54369;BME280;40266;52.434;17.056;2022-12-11T12:09:34;99665.30;;;-1.48;84.17
54369;BME280;40266;52.434;17.056;2022-12-11T12:15:50;99666.88;;;-1.45;83.70
54369;BME280;40266;52.434;17.056;2022-12-11T12:18:55;99659.17;;;-1.44;83.67
54369;BME280;40266;52.434;17.056;2022-12-11T12:21:46;99654.42;;;-1.41;83.64
54369;BME280;40266;52.434;17.056;2022-12-11T12:37:26;99648.60;;;-1.31;83.28
54369;BME280;40266;52.434;17.056;2022-12-11T12:47:13;99638.53;;;-1.27;82.86
54369;BME280;40266;52.434;17.056;2022-12-11T12:49:58;99634.76;;;-1.27;82.79
54369;BME280;40266;52.434;17.056;2022-12-11T12:52:43;99632.55;;;-1.26;82.63
54369;BME280;40266;52.434;17.056;2022-12-11T12:55:28;99629.45;;;-1.27;82.50
54369;BME280;40266;52.434;17.056;2022-12-11T12:58:43;99631.50;;;-1.28;82.55
54369;BME280;40266;52.434;17.056;2022-12-11T13:01:28;99628.89;;;-1.30;82.19
54369;BME280;40266;52.434;17.056;2022-12-11T13:07:33;99625.84;;;-1.41;82.06
54369;BME280;40266;52.434;17.056;2022-12-11T13:10:37;99628.83;;;-1.47;81.95
54369;BME280;40266;52.434;17.056;2022-12-11T13:13:40;99630.23;;;-1.56;82.02
54369;BME280;40266;52.434;17.056;2022-12-11T13:16:39;99633.05;;;-1.63;82.09
54369;BME280;40266;52.434;17.056;2022-12-11T13:19:27;99634.33;;;-1.69;82.22
54369;BME280;40266;52.434;17.056;2022-12-11T13:22:21;99633.45;;;-1.70;82.57
54369;BME280;40266;52.434;17.056;2022-12-11T13:25:48;99631.92;;;-1.70;82.63
54369;BME280;40266;52.434;17.056;2022-12-11T13:34:15;99631.13;;;-1.66;83.34
54369;BME280;40266;52.434;17.056;2022-12-11T13:37:00;99629.81;;;-1.62;83.38
54369;BME280;40266;52.434;17.056;2022-12-11T13:39:48;99631.58;;;-1.58;83.63
54369;BME280;40266;52.434;17.056;2022-12-11T13:42:46;99625.80;;;-1.56;83.75
54369;BME280;40266;52.434;17.056;2022-12-11T13:45:39;99623.60;;;-1.54;83.85
54369;BME280;40266;52.434;17.056;2022-12-11T13:48:46;99614.87;;;-1.53;83.78
54369;BME280;40266;52.434;17.056;2022-12-11T13:51:33;99613.35;;;-1.52;83.95
54369;BME280;40266;52.434;17.056;2022-12-11T13:54:19;99613.88;;;-1.51;84.09
54369;BME280;40266;52.434;17.056;2022-12-11T13:57:17;99619.40;;;-1.48;84.08
54369;BME280;40266;52.434;17.056;2022-12-11T14:00:03;99619.42;;;-1.47;84.27
54369;BME280;40266;52.434;17.056;2022-12-11T14:03:04;99618.05;;;-1.45;84.25
54369;BME280;40266;52.434;17.056;2022-12-11T14:05:50;99617.39;;;-1.45;84.34
54369;BME280;40266;52.434;17.056;2022-12-11T14:08:35;99615.20;;;-1.42;84.61
54369;BME280;40266;52.434;17.056;2022-12-11T14:11:41;99614.92;;;-1.38;84.78
54369;BME280;40266;52.434;17.056;2022-12-11T14:14:40;99613.41;;;-1.35;84.64
54369;BME280;40266;52.434;17.056;2022-12-11T14:17:26;99613.42;;;-1.35;84.68
54369;BME280;40266;52.434;17.056;2022-12-11T14:20:23;99613.26;;;-1.34;84.66
54369;BME280;40266;52.434;17.056;2022-12-11T14:23:16;99609.00;;;-1.33;84.74
54369;BME280;40266;52.434;17.056;2022-12-11T14:26:15;99611.57;;;-1.32;84.82
54369;BME280;40266;52.434;17.056;2022-12-11T14:28:59;99605.59;;;-1.31;84.86
54369;BME280;40266;52.434;17.056;2022-12-11T14:31:43;99605.77;;;-1.29;84.99
54369;BME280;40266;52.434;17.056;2022-12-11T14:34:34;99608.89;;;-1.28;84.96
54369;BME280;40266;52.434;17.056;2022-12-11T14:37:20;99612.66;;;-1.27;85.03
54369;BME280;40266;52.434;17.056;2022-12-11T14:40:12;99613.53;;;-1.25;85.19
54369;BME280;40266;52.434;17.056;2022-12-11T14:43:00;99614.40;;;-1.25;85.15
54369;BME280;40266;52.434;17.056;2022-12-11T14:45:47;99611.34;;;-1.24;85.35
54369;BME280;40266;52.434;17.056;2022-12-11T14:48:41;99606.70;;;-1.24;85.42
54369;BME280;40266;52.434;17.056;2022-12-11T14:51:28;99607.55;;;-1.24;85.53
54369;BME280;40266;52.434;17.056;2022-12-11T14:54:18;99610.30;;;-1.25;85.70
54369;BME280;40266;52.434;17.056;2022-12-11T14:57:05;99612.72;;;-1.23;85.77
54369;BME280;40266;52.434;17.056;2022-12-11T14:59:50;99607.57;;;-1.24;85.76
54369;BME280;40266;52.434;17.056;2022-12-11T15:02:35;99612.71;;;-1.23;85.85
54369;BME280;40266;52.434;17.056;2022-12-11T15:05:19;99611.17;;;-1.23;85.91
54369;BME280;40266;52.434;17.056;2022-12-11T15:11:03;99605.52;;;-1.23;86.09
54369;BME280;40266;52.434;17.056;2022-12-11T15:13:55;99612.39;;;-1.21;86.03
54369;BME280;40266;52.434;17.056;2022-12-11T15:16:40;99609.98;;;-1.21;86.13
54369;BME280;40266;52.434;17.056;2022-12-11T15:19:30;99608.63;;;-1.21;86.35
54369;BME280;40266;52.434;17.056;2022-12-11T15:22:14;99610.19;;;-1.20;86.39
54369;BME280;40266;52.434;17.056;2022-12-11T15:24:59;99608.48;;;-1.20;86.33
54369;BME280;40266;52.434;17.056;2022-12-11T15:27:42;99607.95;;;-1.21;86.47
54369;BME280;40266;52.434;17.056;2022-12-11T15:30:31;99608.63;;;-1.21;86.33
54369;BME280;40266;52.434;17.056;2022-12-11T15:33:18;99604.86;;;-1.21;86.43
54369;BME280;40266;52.434;17.056;2022-12-11T15:36:04;99599.52;;;-1.23;86.38
54369;BME280;40266;52.434;17.056;2022-12-11T15:38:47;99600.33;;;-1.26;86.14
54369;BME280;40266;52.434;17.056;2022-12-11T15:41:30;99595.66;;;-1.30;86.26
54369;BME280;40266;52.434;17.056;2022-12-11T15:44:19;99597.85;;;-1.33;86.33
54369;BME280;40266;52.434;17.056;2022-12-11T15:47:13;99601.25;;;-1.35;86.47
54369;BME280;40266;52.434;17.056;2022-12-11T15:50:07;99601.38;;;-1.37;86.57
54369;BME280;40266;52.434;17.056;2022-12-11T15:52:55;99599.14;;;-1.39;86.61